Terminal Aerodrome Forecast
Issued by NWS

Home | Current Version | Previous Version | Graphics & Text | Print | Product List | Glossary On
Versions: 1 2 3 4 5 6 7 8 9 10 11 12 13 14 15 16
827
FTUS43 KTOP 161922 AAA
TAFFOE
TAF AMD
KFOE 161922Z 1619/1718 24011KT P6SM BKN030
     FM162100 19015KT 5SM -TSRA SCT015 BKN030CB
     FM170000 19008KT P6SM -SHRA VCTS OVC040CB
     FM170300 26007KT P6SM BKN150
     FM171500 30011G17KT P6SM SCT150=

USA.gov is the U.S. government's official web portal to all federal, state and local government web resources and services.